createdAt,value
2018-04-23T00:02:13.061Z,99.50
2018-04-23T00:04:41.791Z,99.20
2018-04-23T00:07:09.260Z,99.10
2018-04-23T00:09:36.713Z,99.00
2018-04-23T00:12:08.205Z,99.70
2018-04-23T00:14:36.373Z,99.10
2018-04-23T00:17:04.640Z,99.60
2018-04-23T00:19:32.108Z,99.50
2018-04-23T00:21:59.599Z,99.40
2018-04-23T00:24:27.423Z,98.90
2018-04-23T00:26:55.447Z,99.00
2018-04-23T00:29:22.942Z,99.50
2018-04-23T00:31:50.394Z,99.50
2018-04-23T00:34:17.904Z,99.30
2018-04-23T00:36:45.367Z,98.80
2018-04-23T00:39:12.846Z,99.10
2018-04-23T00:41:44.100Z,99.40
2018-04-23T00:44:11.764Z,99.20
2018-04-23T00:46:39.267Z,99.20
2018-04-23T00:49:06.770Z,99.40
2018-04-23T00:51:34.224Z,99.90
2018-04-23T00:54:01.694Z,98.90
2018-04-23T00:56:32.773Z,98.70
2018-04-23T00:59:00.256Z,99.10
2018-04-23T01:01:27.754Z,99.30
2018-04-23T01:03:55.219Z,99.90
2018-04-23T01:06:23.244Z,99.90
2018-04-23T01:08:51.078Z,99.90
2018-04-23T01:11:19.317Z,99.90
2018-04-23T01:13:46.810Z,99.90
2018-04-23T01:16:14.297Z,99.90
2018-04-23T01:18:42.677Z,99.90
2018-04-23T01:21:10.173Z,99.90
2018-04-23T01:23:37.652Z,99.90
2018-04-23T01:26:10.427Z,99.90
2018-04-23T01:28:37.890Z,99.90
2018-04-23T01:31:05.394Z,99.90
2018-04-23T01:33:32.899Z,99.90
2018-04-23T01:36:00.489Z,99.90
2018-04-23T01:38:27.955Z,99.40
2018-04-23T01:40:58.758Z,99.50
2018-04-23T01:43:27.137Z,99.60
2018-04-23T01:45:54.622Z,99.90
2018-04-23T01:48:22.074Z,99.90
2018-04-23T01:50:50.684Z,99.70
2018-04-23T01:53:18.180Z,99.70
2018-04-23T01:55:46.245Z,99.60
2018-04-23T01:58:13.707Z,99.20
2018-04-23T02:00:41.211Z,99.40
2018-04-23T02:03:08.663Z,99.20
2018-04-23T02:05:36.153Z,99.50
2018-04-23T02:08:03.652Z,99.20
2018-04-23T02:10:31.135Z,98.70
2018-04-23T02:13:03.681Z,99.60
2018-04-23T02:15:31.172Z,99.60
2018-04-23T02:17:58.630Z,99.90
2018-04-23T02:20:26.861Z,99.90
2018-04-23T02:22:55.716Z,99.90
2018-04-23T02:25:23.189Z,99.90
2018-04-23T02:27:50.668Z,99.90
2018-04-23T02:30:18.171Z,99.90
2018-04-23T02:32:45.628Z,99.90
2018-04-23T02:35:13.262Z,99.90
2018-04-23T02:37:40.719Z,99.90
2018-04-23T02:40:08.842Z,99.90
2018-04-23T02:42:36.317Z,99.90
2018-04-23T02:45:03.796Z,99.90
2018-04-23T02:47:31.259Z,99.90
2018-04-23T02:49:58.715Z,99.90
2018-04-23T02:52:26.194Z,99.90
2018-04-23T02:54:53.837Z,99.90
2018-04-23T02:57:25.704Z,99.90
2018-04-23T02:59:53.188Z,99.90
2018-04-23T03:02:20.647Z,99.90
2018-04-23T03:04:48.134Z,99.90
2018-04-23T03:07:15.604Z,99.90
2018-04-23T03:09:43.099Z,99.90
2018-04-23T03:12:11.485Z,99.90
2018-04-23T03:14:38.985Z,99.90
2018-04-23T03:17:06.449Z,99.90
2018-04-23T03:19:33.936Z,99.90
2018-04-23T03:22:02.919Z,99.90
2018-04-23T03:24:30.885Z,99.90
2018-04-23T03:26:58.370Z,99.90
2018-04-23T03:29:25.820Z,99.90
2018-04-23T03:31:53.304Z,99.90
2018-04-23T03:34:20.754Z,99.90
2018-04-23T03:36:48.251Z,99.90
2018-04-23T03:39:15.703Z,99.90
2018-04-23T03:41:43.196Z,99.90
2018-04-23T03:44:10.683Z,99.90
2018-04-23T03:46:39.829Z,99.90
2018-04-23T03:49:07.317Z,99.90
2018-04-23T03:51:35.557Z,99.90
2018-04-23T03:54:03.984Z,99.90
2018-04-23T03:56:31.444Z,99.90
2018-04-23T03:58:58.938Z,99.90
2018-04-23T04:01:26.715Z,99.90
2018-04-23T04:03:54.172Z,99.90
2018-04-23T04:06:21.679Z,99.90
2018-04-23T04:08:49.121Z,99.90
2018-04-23T04:11:17.355Z,99.90
2018-04-23T04:14:00.727Z,99.90
2018-04-23T04:16:40.588Z,99.90
2018-04-23T04:19:08.244Z,99.90
2018-04-23T04:21:36.454Z,99.90
2018-04-23T04:24:03.961Z,99.90
2018-04-23T04:26:31.432Z,99.90
2018-04-23T04:29:04.308Z,99.90
2018-04-23T04:31:35.782Z,99.90
2018-04-23T04:34:03.238Z,99.90
2018-04-23T04:36:30.716Z,99.90
2018-04-23T04:38:58.174Z,99.90
2018-04-23T04:41:26.486Z,99.90
2018-04-23T04:43:54.996Z,99.90
2018-04-23T04:46:22.409Z,99.90
2018-04-23T04:48:49.886Z,99.90
2018-04-23T04:51:17.364Z,99.90
2018-04-23T04:53:46.539Z,99.90
2018-04-23T04:56:14.225Z,99.90
2018-04-23T04:58:41.720Z,99.90
2018-04-23T05:01:09.199Z,99.90
2018-04-23T05:03:36.685Z,99.90
2018-04-23T05:06:05.097Z,99.90
2018-04-23T05:08:32.609Z,99.90
2018-04-23T05:11:00.159Z,99.90
2018-04-23T05:13:27.637Z,99.90
2018-04-23T05:15:55.091Z,99.90
2018-04-23T05:18:22.567Z,99.90
2018-04-23T05:20:50.034Z,99.90
2018-04-23T05:23:17.525Z,99.90
2018-04-23T05:25:45.038Z,99.90
2018-04-23T05:28:14.000Z,99.90
2018-04-23T05:30:41.461Z,99.90
2018-04-23T05:33:08.960Z,99.90
2018-04-23T05:35:36.416Z,99.90
2018-04-23T05:38:03.907Z,99.90
2018-04-23T05:40:31.399Z,99.90
2018-04-23T05:42:58.881Z,99.90
2018-04-23T05:45:34.199Z,99.90
2018-04-23T05:48:01.859Z,99.90
2018-04-23T05:50:29.314Z,99.90
2018-04-23T05:52:57.897Z,99.90
2018-04-23T05:55:25.364Z,99.90
2018-04-23T05:57:52.913Z,99.90
2018-04-23T06:00:20.369Z,99.90
2018-04-23T06:02:47.857Z,99.90
2018-04-23T06:05:15.363Z,99.90
2018-04-23T06:07:42.842Z,99.90
2018-04-23T06:10:10.322Z,99.90
2018-04-23T06:12:37.784Z,99.50
2018-04-23T06:15:06.396Z,99.30
2018-04-23T06:17:33.910Z,98.90
2018-04-23T06:20:01.414Z,99.40
2018-04-23T06:22:28.856Z,99.10
2018-04-23T06:24:56.344Z,99.20
2018-04-23T06:27:23.805Z,99.60
2018-04-23T06:29:51.307Z,99.90
2018-04-23T06:32:19.996Z,99.90
2018-04-23T06:34:47.441Z,99.90
2018-04-23T06:37:14.970Z,99.50
2018-04-23T06:39:42.433Z,98.00
2018-04-23T06:42:10.036Z,96.90
2018-04-23T06:44:37.478Z,96.30
2018-04-23T06:47:05.714Z,96.10
2018-04-23T06:49:33.668Z,96.10
2018-04-23T06:52:01.134Z,95.80
2018-04-23T06:54:28.614Z,95.70
2018-04-23T06:56:56.759Z,95.60
2018-04-23T06:59:24.233Z,95.30
2018-04-23T07:01:53.433Z,95.70
2018-04-23T07:04:20.880Z,95.70
2018-04-23T07:06:48.343Z,95.70
2018-04-23T07:09:15.821Z,95.20
2018-04-23T07:11:43.285Z,95.20
2018-04-23T07:14:10.768Z,94.90
2018-04-23T07:16:41.606Z,95.00
2018-04-23T07:19:09.891Z,94.60
2018-04-23T07:21:37.484Z,94.70
2018-04-23T07:24:04.969Z,94.10
2018-04-23T07:26:32.468Z,93.40
2018-04-23T07:28:59.932Z,93.60
2018-04-23T07:31:28.237Z,92.90
2018-04-23T07:33:56.159Z,92.80
2018-04-23T07:36:24.455Z,92.50
2018-04-23T07:38:52.751Z,92.30
2018-04-23T07:41:21.555Z,92.10
2018-04-23T07:43:49.053Z,92.00
2018-04-23T07:46:16.542Z,92.10
2018-04-23T07:48:44.044Z,91.50
2018-04-23T07:51:11.580Z,91.60
2018-04-23T07:53:39.072Z,91.90
2018-04-23T07:56:06.563Z,91.70
2018-04-23T07:58:34.640Z,91.30
2018-04-23T08:01:02.155Z,91.60
2018-04-23T08:03:29.662Z,91.30
2018-04-23T08:05:57.197Z,91.00
2018-04-23T08:08:24.654Z,90.50
2018-04-23T08:10:52.173Z,90.50
2018-04-23T08:13:19.632Z,90.80
2018-04-23T08:15:47.106Z,90.90
2018-04-23T08:18:18.364Z,91.10
2018-04-23T08:20:45.842Z,91.40
2018-04-23T08:23:13.636Z,91.70
2018-04-23T08:25:41.155Z,91.70
2018-04-23T08:28:08.633Z,91.60
2018-04-23T08:30:37.775Z,91.90
2018-04-23T08:33:09.568Z,91.90
2018-04-23T08:35:37.050Z,92.50
2018-04-23T08:38:04.532Z,92.40
2018-04-23T08:40:32.628Z,92.70
2018-04-23T08:43:00.073Z,92.70
2018-04-23T08:45:27.575Z,92.90
2018-04-23T08:47:55.340Z,93.40
2018-04-23T08:50:22.836Z,93.10
2018-04-23T08:52:50.653Z,92.00
2018-04-23T08:55:18.166Z,92.30
2018-04-23T08:57:46.882Z,92.10
2018-04-23T09:00:14.340Z,92.10
2018-04-23T09:02:41.913Z,92.00
2018-04-23T09:05:09.598Z,91.80
2018-04-23T09:07:37.082Z,92.10
2018-04-23T09:10:04.555Z,91.40
2018-04-23T09:12:32.060Z,91.40
2018-04-23T09:15:00.131Z,91.30
2018-04-23T09:17:27.638Z,91.10
2018-04-23T09:19:55.089Z,92.20
2018-04-23T09:22:22.568Z,92.60
2018-04-23T09:24:50.156Z,92.80
2018-04-23T09:27:17.561Z,93.30
2018-04-23T09:29:45.060Z,93.00
2018-04-23T09:32:12.516Z,92.60
2018-04-23T09:34:39.981Z,93.40
2018-04-23T09:37:08.971Z,93.80
2018-04-23T09:39:36.430Z,93.80
2018-04-23T09:42:04.419Z,93.90
2018-04-23T09:44:33.622Z,94.30
2018-04-23T09:47:01.115Z,94.30
2018-04-23T09:49:28.630Z,94.60
2018-04-23T09:51:56.127Z,94.20
2018-04-23T09:54:23.587Z,94.40
2018-04-23T09:56:51.130Z,95.40
2018-04-23T09:59:18.700Z,96.30
2018-04-23T10:01:50.502Z,97.40
2018-04-23T10:04:20.880Z,98.60
2018-04-23T10:06:52.498Z,99.70
2018-04-23T10:09:20.163Z,99.90
2018-04-23T10:11:47.672Z,99.90
2018-04-23T10:14:15.132Z,99.90
